sensor_id;sensor_type;location;lat;lon;timestamp;P1;durP1;ratioP1;P2;durP2;ratioP2
57233;SDS011;43090;52.604;13.318;2024-01-16T09:05:44;7.07;;;3.63;;
57233;SDS011;43090;52.604;13.318;2024-01-16T09:15:56;11.38;;;4.57;;
57233;SDS011;43090;52.604;13.318;2024-01-16T09:18:54;12.45;;;4.65;;
57233;SDS011;43090;52.604;13.318;2024-01-16T09:22:15;15.32;;;5.30;;
57233;SDS011;43090;52.604;13.318;2024-01-16T09:24:47;10.52;;;5.18;;
57233;SDS011;43090;52.604;13.318;2024-01-16T09:27:25;12.63;;;5.57;;
57233;SDS011;43090;52.604;13.318;2024-01-16T09:30:27;14.77;;;5.75;;
57233;SDS011;43090;52.604;13.318;2024-01-16T09:44:10;9.50;;;4.38;;
57233;SDS011;43090;52.604;13.318;2024-01-16T09:47:03;14.18;;;5.03;;
57233;SDS011;43090;52.604;13.318;2024-01-16T09:52:19;14.25;;;5.70;;
57233;SDS011;43090;52.604;13.318;2024-01-16T09:54:46;10.48;;;4.53;;
57233;SDS011;43090;52.604;13.318;2024-01-16T10:00:59;15.88;;;5.43;;
57233;SDS011;43090;52.604;13.318;2024-01-16T10:03:50;11.88;;;4.78;;
57233;SDS011;43090;52.604;13.318;2024-01-16T10:14:03;14.02;;;4.05;;
57233;SDS011;43090;52.604;13.318;2024-01-16T10:19:53;11.18;;;4.53;;
57233;SDS011;43090;52.604;13.318;2024-01-16T10:22:39;10.75;;;5.78;;
57233;SDS011;43090;52.604;13.318;2024-01-16T10:25:48;11.02;;;5.30;;
57233;SDS011;43090;52.604;13.318;2024-01-16T10:28:37;13.30;;;4.80;;
57233;SDS011;43090;52.604;13.318;2024-01-16T10:31:20;12.98;;;4.53;;
57233;SDS011;43090;52.604;13.318;2024-01-16T10:34:25;10.95;;;5.32;;
57233;SDS011;43090;52.604;13.318;2024-01-16T10:37:27;6.45;;;3.58;;
57233;SDS011;43090;52.604;13.318;2024-01-16T10:40:24;11.15;;;4.32;;
57233;SDS011;43090;52.604;13.318;2024-01-16T11:17:48;7.18;;;3.42;;
57233;SDS011;43090;52.604;13.318;2024-01-16T11:20:28;8.75;;;3.72;;
57233;SDS011;43090;52.604;13.318;2024-01-16T11:23:34;9.02;;;3.80;;
57233;SDS011;43090;52.604;13.318;2024-01-16T11:31:59;9.88;;;3.30;;
57233;SDS011;43090;52.604;13.318;2024-01-16T11:34:56;11.65;;;3.58;;
57233;SDS011;43090;52.604;13.318;2024-01-16T11:38:25;9.00;;;3.17;;
57233;SDS011;43090;52.604;13.318;2024-01-16T11:40:56;13.93;;;3.40;;
57233;SDS011;43090;52.604;13.318;2024-01-16T11:43:45;5.57;;;2.72;;
57233;SDS011;43090;52.604;13.318;2024-01-16T11:46:20;10.05;;;2.75;;
57233;SDS011;43090;52.604;13.318;2024-01-16T11:48:53;9.63;;;3.40;;
57233;SDS011;43090;52.604;13.318;2024-01-16T11:51:29;7.90;;;3.53;;
57233;SDS011;43090;52.604;13.318;2024-01-16T11:54:02;9.85;;;3.92;;
57233;SDS011;43090;52.604;13.318;2024-01-16T12:00:02;12.65;;;4.50;;
57233;SDS011;43090;52.604;13.318;2024-01-16T12:02:57;8.85;;;3.38;;
57233;SDS011;43090;52.604;13.318;2024-01-16T12:06:09;9.77;;;3.55;;
57233;SDS011;43090;52.604;13.318;2024-01-16T12:08:53;19.60;;;6.68;;
57233;SDS011;43090;52.604;13.318;2024-01-16T12:22:08;12.13;;;4.22;;
57233;SDS011;43090;52.604;13.318;2024-01-16T12:32:08;17.58;;;5.63;;
57233;SDS011;43090;52.604;13.318;2024-01-16T12:34:46;17.67;;;5.55;;
57233;SDS011;43090;52.604;13.318;2024-01-16T12:37:17;13.63;;;4.97;;
57233;SDS011;43090;52.604;13.318;2024-01-16T12:39:44;13.65;;;4.97;;
57233;SDS011;43090;52.604;13.318;2024-01-16T12:42:21;16.67;;;5.20;;
57233;SDS011;43090;52.604;13.318;2024-01-16T12:44:50;16.75;;;5.03;;
57233;SDS011;43090;52.604;13.318;2024-01-16T12:47:19;11.90;;;4.82;;
57233;SDS011;43090;52.604;13.318;2024-01-16T12:50:04;16.73;;;6.28;;
57233;SDS011;43090;52.604;13.318;2024-01-16T12:52:34;11.10;;;5.05;;
57233;SDS011;43090;52.604;13.318;2024-01-16T12:55:03;13.20;;;4.93;;
57233;SDS011;43090;52.604;13.318;2024-01-16T12:57:33;16.20;;;4.88;;
57233;SDS011;43090;52.604;13.318;2024-01-16T13:02:50;13.73;;;4.72;;
57233;SDS011;43090;52.604;13.318;2024-01-16T13:05:25;22.02;;;6.38;;
57233;SDS011;43090;52.604;13.318;2024-01-16T13:08:01;14.80;;;4.60;;
57233;SDS011;43090;52.604;13.318;2024-01-16T13:11:07;17.02;;;5.00;;
57233;SDS011;43090;52.604;13.318;2024-01-16T13:14:03;20.50;;;4.53;;
57233;SDS011;43090;52.604;13.318;2024-01-16T13:16:30;24.90;;;5.13;;
57233;SDS011;43090;52.604;13.318;2024-01-16T13:21:28;20.17;;;6.47;;
57233;SDS011;43090;52.604;13.318;2024-01-16T13:23:55;13.68;;;3.95;;
57233;SDS011;43090;52.604;13.318;2024-01-16T13:26:22;16.10;;;6.07;;
57233;SDS011;43090;52.604;13.318;2024-01-16T13:31:16;21.98;;;6.38;;
57233;SDS011;43090;52.604;13.318;2024-01-16T13:33:44;11.70;;;4.10;;
57233;SDS011;43090;52.604;13.318;2024-01-16T13:36:11;14.30;;;4.22;;
57233;SDS011;43090;52.604;13.318;2024-01-16T13:38:38;23.02;;;3.67;;
57233;SDS011;43090;52.604;13.318;2024-01-16T13:43:31;17.45;;;4.88;;
57233;SDS011;43090;52.604;13.318;2024-01-16T13:46:00;10.27;;;3.80;;
57233;SDS011;43090;52.604;13.318;2024-01-16T13:50:53;19.63;;;4.78;;
57233;SDS011;43090;52.604;13.318;2024-01-16T13:53:23;13.35;;;4.40;;
57233;SDS011;43090;52.604;13.318;2024-01-16T14:25:58;19.02;;;4.68;;
57233;SDS011;43090;52.604;13.318;2024-01-16T14:48:03;18.13;;;3.55;;
57233;SDS011;43090;52.604;13.318;2024-01-16T14:50:30;9.55;;;3.97;;
57233;SDS011;43090;52.604;13.318;2024-01-16T14:55:26;16.15;;;4.75;;
57233;SDS011;43090;52.604;13.318;2024-01-16T15:07:12;11.73;;;3.63;;
57233;SDS011;43090;52.604;13.318;2024-01-16T15:09:40;15.82;;;4.35;;
57233;SDS011;43090;52.604;13.318;2024-01-16T15:15:15;12.55;;;3.45;;
57233;SDS011;43090;52.604;13.318;2024-01-16T15:17:42;18.13;;;3.95;;
57233;SDS011;43090;52.604;13.318;2024-01-16T15:20:11;19.38;;;4.97;;
57233;SDS011;43090;52.604;13.318;2024-01-16T15:22:42;13.50;;;4.65;;
57233;SDS011;43090;52.604;13.318;2024-01-16T15:25:12;15.38;;;5.47;;
57233;SDS011;43090;52.604;13.318;2024-01-16T15:27:56;21.13;;;5.43;;
57233;SDS011;43090;52.604;13.318;2024-01-16T15:31:18;19.30;;;4.18;;
57233;SDS011;43090;52.604;13.318;2024-01-16T15:33:45;21.02;;;5.55;;
57233;SDS011;43090;52.604;13.318;2024-01-16T15:36:17;19.48;;;4.80;;
57233;SDS011;43090;52.604;13.318;2024-01-16T15:38:44;15.07;;;5.10;;
57233;SDS011;43090;52.604;13.318;2024-01-16T15:41:27;23.30;;;6.13;;
57233;SDS011;43090;52.604;13.318;2024-01-16T15:44:04;13.57;;;6.55;;
57233;SDS011;43090;52.604;13.318;2024-01-16T15:51:14;18.45;;;5.50;;
57233;SDS011;43090;52.604;13.318;2024-01-16T15:57:46;17.17;;;6.10;;
57233;SDS011;43090;52.604;13.318;2024-01-16T16:00:12;19.25;;;6.43;;
57233;SDS011;43090;52.604;13.318;2024-01-16T16:05:30;19.08;;;6.80;;
57233;SDS011;43090;52.604;13.318;2024-01-16T16:07:57;18.65;;;6.60;;
57233;SDS011;43090;52.604;13.318;2024-01-16T16:10:23;22.80;;;7.55;;
57233;SDS011;43090;52.604;13.318;2024-01-16T16:12:51;19.48;;;7.38;;
57233;SDS011;43090;52.604;13.318;2024-01-16T16:15:18;19.23;;;9.07;;
57233;SDS011;43090;52.604;13.318;2024-01-16T16:20:11;21.55;;;8.25;;
57233;SDS011;43090;52.604;13.318;2024-01-16T16:22:37;17.77;;;7.03;;
57233;SDS011;43090;52.604;13.318;2024-01-16T16:25:13;18.67;;;6.95;;
57233;SDS011;43090;52.604;13.318;2024-01-16T16:27:49;21.38;;;8.52;;
57233;SDS011;43090;52.604;13.318;2024-01-16T16:33:20;17.90;;;7.82;;
57233;SDS011;43090;52.604;13.318;2024-01-16T16:35:47;22.10;;;7.50;;
57233;SDS011;43090;52.604;13.318;2024-01-16T16:40:40;25.25;;;8.07;;
57233;SDS011;43090;52.604;13.318;2024-01-16T16:43:10;19.67;;;8.43;;
57233;SDS011;43090;52.604;13.318;2024-01-16T16:50:25;20.13;;;7.85;;
57233;SDS011;43090;52.604;13.318;2024-01-16T16:52:52;21.40;;;8.75;;
57233;SDS011;43090;52.604;13.318;2024-01-16T16:55:18;25.95;;;9.07;;
57233;SDS011;43090;52.604;13.318;2024-01-16T17:00:11;28.42;;;10.98;;
57233;SDS011;43090;52.604;13.318;2024-01-16T17:02:40;23.00;;;9.57;;
57233;SDS011;43090;52.604;13.318;2024-01-16T17:05:07;27.58;;;10.48;;
57233;SDS011;43090;52.604;13.318;2024-01-16T17:07:34;22.48;;;10.20;;
57233;SDS011;43090;52.604;13.318;2024-01-16T17:12:27;22.00;;;9.77;;
57233;SDS011;43090;52.604;13.318;2024-01-16T17:17:21;22.55;;;9.57;;
57233;SDS011;43090;52.604;13.318;2024-01-16T17:19:48;22.85;;;8.25;;
57233;SDS011;43090;52.604;13.318;2024-01-16T17:22:16;20.08;;;8.07;;
57233;SDS011;43090;52.604;13.318;2024-01-16T17:24:42;29.15;;;8.77;;
57233;SDS011;43090;52.604;13.318;2024-01-16T17:27:09;25.65;;;9.30;;
57233;SDS011;43090;52.604;13.318;2024-01-16T17:29:38;31.77;;;10.27;;
57233;SDS011;43090;52.604;13.318;2024-01-16T17:32:08;23.92;;;8.73;;
57233;SDS011;43090;52.604;13.318;2024-01-16T17:34:37;24.77;;;9.38;;
57233;SDS011;43090;52.604;13.318;2024-01-16T17:37:15;20.10;;;8.15;;
57233;SDS011;43090;52.604;13.318;2024-01-16T17:39:51;25.90;;;8.15;;
57233;SDS011;43090;52.604;13.318;2024-01-16T17:42:18;19.63;;;8.80;;
57233;SDS011;43090;52.604;13.318;2024-01-16T17:44:48;30.67;;;9.02;;
57233;SDS011;43090;52.604;13.318;2024-01-16T17:47:15;34.05;;;8.75;;
57233;SDS011;43090;52.604;13.318;2024-01-16T17:49:43;23.58;;;9.63;;
57233;SDS011;43090;52.604;13.318;2024-01-16T17:52:20;25.60;;;9.68;;
57233;SDS011;43090;52.604;13.318;2024-01-16T17:54:49;26.77;;;8.93;;
57233;SDS011;43090;52.604;13.318;2024-01-16T17:57:16;22.40;;;8.90;;
57233;SDS011;43090;52.604;13.318;2024-01-16T17:59:43;19.48;;;8.15;;
57233;SDS011;43090;52.604;13.318;2024-01-16T18:04:36;21.50;;;8.48;;
57233;SDS011;43090;52.604;13.318;2024-01-16T18:07:05;20.27;;;8.70;;
57233;SDS011;43090;52.604;13.318;2024-01-16T18:09:32;20.83;;;7.13;;
57233;SDS011;43090;52.604;13.318;2024-01-16T18:12:00;19.60;;;7.47;;
57233;SDS011;43090;52.604;13.318;2024-01-16T18:14:30;16.33;;;6.43;;
57233;SDS011;43090;52.604;13.318;2024-01-16T18:16:57;18.05;;;7.20;;
57233;SDS011;43090;52.604;13.318;2024-01-16T18:19:23;23.20;;;7.35;;
57233;SDS011;43090;52.604;13.318;2024-01-16T18:21:53;21.45;;;7.30;;
57233;SDS011;43090;52.604;13.318;2024-01-16T18:24:21;19.98;;;7.15;;
57233;SDS011;43090;52.604;13.318;2024-01-16T18:26:48;24.58;;;6.70;;
57233;SDS011;43090;52.604;13.318;2024-01-16T18:29:18;17.23;;;7.15;;
57233;SDS011;43090;52.604;13.318;2024-01-16T18:31:47;23.88;;;8.82;;
57233;SDS011;43090;52.604;13.318;2024-01-16T18:34:14;20.38;;;7.25;;
57233;SDS011;43090;52.604;13.318;2024-01-16T18:36:54;18.98;;;9.38;;
57233;SDS011;43090;52.604;13.318;2024-01-16T18:39:43;23.00;;;8.45;;
57233;SDS011;43090;52.604;13.318;2024-01-16T18:42:18;32.53;;;9.55;;
57233;SDS011;43090;52.604;13.318;2024-01-16T18:48:12;30.10;;;12.52;;
57233;SDS011;43090;52.604;13.318;2024-01-16T18:54:42;30.55;;;10.73;;
57233;SDS011;43090;52.604;13.318;2024-01-16T18:57:09;22.55;;;8.70;;
57233;SDS011;43090;52.604;13.318;2024-01-16T18:59:51;28.88;;;9.13;;
57233;SDS011;43090;52.604;13.318;2024-01-16T19:02:25;23.02;;;9.02;;
57233;SDS011;43090;52.604;13.318;2024-01-16T19:08:11;18.48;;;8.05;;
57233;SDS011;43090;52.604;13.318;2024-01-16T19:13:50;29.85;;;9.10;;
57233;SDS011;43090;52.604;13.318;2024-01-16T19:20:00;18.65;;;9.10;;
57233;SDS011;43090;52.604;13.318;2024-01-16T23:06:22;13.32;;;4.82;;
57233;SDS011;43090;52.604;13.318;2024-01-16T23:08:55;13.65;;;4.72;;
57233;SDS011;43090;52.604;13.318;2024-01-16T23:11:23;16.45;;;4.47;;
57233;SDS011;43090;52.604;13.318;2024-01-16T23:13:50;12.55;;;4.70;;
57233;SDS011;43090;52.604;13.318;2024-01-16T23:16:17;10.90;;;4.18;;
57233;SDS011;43090;52.604;13.318;2024-01-16T23:21:49;16.75;;;4.32;;
57233;SDS011;43090;52.604;13.318;2024-01-16T23:26:42;14.93;;;5.38;;
57233;SDS011;43090;52.604;13.318;2024-01-16T23:29:09;14.68;;;5.80;;
57233;SDS011;43090;52.604;13.318;2024-01-16T23:31:36;15.63;;;5.35;;
57233;SDS011;43090;52.604;13.318;2024-01-16T23:34:03;16.90;;;5.45;;
57233;SDS011;43090;52.604;13.318;2024-01-16T23:38:56;20.83;;;6.03;;
57233;SDS011;43090;52.604;13.318;2024-01-16T23:41:25;14.52;;;6.65;;
57233;SDS011;43090;52.604;13.318;2024-01-16T23:47:39;18.25;;;5.97;;
57233;SDS011;43090;52.604;13.318;2024-01-16T23:50:09;16.88;;;5.80;;
57233;SDS011;43090;52.604;13.318;2024-01-16T23:52:36;18.38;;;6.13;;
57233;SDS011;43090;52.604;13.318;2024-01-16T23:55:23;20.60;;;6.47;;
57233;SDS011;43090;52.604;13.318;2024-01-16T23:57:49;19.50;;;6.78;;
